createdAt,value
2019-03-19T00:00:12.267Z,1.60
2019-03-19T00:02:42.729Z,1.70
2019-03-19T00:05:13.291Z,1.60
2019-03-19T00:07:43.756Z,1.70
2019-03-19T00:10:14.280Z,1.70
2019-03-19T00:12:44.794Z,1.70
2019-03-19T00:15:15.454Z,1.60
2019-03-19T00:17:45.772Z,1.60
2019-03-19T00:20:16.187Z,1.60
2019-03-19T00:22:46.595Z,1.50
2019-03-19T00:25:17.022Z,1.50
2019-03-19T00:27:47.545Z,1.50
2019-03-19T00:30:17.955Z,1.50
2019-03-19T00:32:48.387Z,1.60
2019-03-19T00:35:18.781Z,1.50
2019-03-19T00:37:49.178Z,1.50
2019-03-19T00:40:19.622Z,1.50
2019-03-19T00:42:50.077Z,1.40
2019-03-19T00:45:20.556Z,1.40
2019-03-19T00:47:50.990Z,1.40
2019-03-19T00:50:21.491Z,1.30
2019-03-19T00:52:52.035Z,1.30
2019-03-19T00:55:22.462Z,1.20
2019-03-19T00:57:52.762Z,1.20
2019-03-19T01:00:23.219Z,1.10
2019-03-19T01:02:53.643Z,1.10
2019-03-19T01:05:24.043Z,1.00
2019-03-19T01:07:54.351Z,1.00
2019-03-19T01:10:24.797Z,0.90
2019-03-19T01:12:55.252Z,0.90
2019-03-19T01:15:25.665Z,0.90
2019-03-19T01:17:56.032Z,0.90
2019-03-19T01:20:26.415Z,0.80
2019-03-19T01:22:56.785Z,0.80
2019-03-19T01:25:27.080Z,0.80
2019-03-19T01:27:57.550Z,0.80
2019-03-19T01:30:28.032Z,0.80
2019-03-19T01:32:58.321Z,0.80
2019-03-19T01:35:28.713Z,0.80
2019-03-19T01:37:59.122Z,0.80
2019-03-19T01:40:29.598Z,0.90
2019-03-19T01:42:59.981Z,0.80
2019-03-19T01:45:30.474Z,0.80
2019-03-19T01:48:00.838Z,0.80
2019-03-19T01:50:31.336Z,0.80
2019-03-19T01:53:01.946Z,0.80
2019-03-19T01:55:32.397Z,0.70
2019-03-19T01:58:02.812Z,0.70
2019-03-19T02:00:33.307Z,0.80
2019-03-19T02:03:03.755Z,0.80
2019-03-19T02:05:34.139Z,0.80
2019-03-19T02:08:04.533Z,0.80
2019-03-19T02:10:35.013Z,0.80
2019-03-19T02:13:09.689Z,0.80
2019-03-19T02:15:43.734Z,0.70
2019-03-19T02:22:25.909Z,0.60
2019-03-19T02:25:04.874Z,0.30
2019-03-19T02:27:37.418Z,0.20
2019-03-19T02:30:14.245Z,0.20
2019-03-19T02:32:49.662Z,0.30
2019-03-19T02:35:22.502Z,0.30
2019-03-19T02:37:56.204Z,0.30
2019-03-19T02:40:31.007Z,0.20
2019-03-19T02:59:29.534Z,0.40
2019-03-19T03:08:07.878Z,-0.10
2019-03-19T03:11:20.441Z,-0.10
2019-03-19T03:14:38.421Z,-0.10
2019-03-19T03:16:24.938Z,-0.10
2019-03-19T03:19:01.748Z,-0.10
2019-03-19T03:21:34.550Z,-0.10
2019-03-19T03:24:14.539Z,-0.10
2019-03-19T03:37:21.346Z,0.00
2019-03-19T03:40:06.491Z,0.10
2019-03-19T03:42:44.902Z,0.20
2019-03-19T03:45:27.837Z,0.20
2019-03-19T03:48:09.934Z,0.10
2019-03-19T03:51:08.293Z,0.00
2019-03-19T03:53:17.600Z,0.00
2019-03-19T04:01:11.693Z,0.00
2019-03-19T04:03:51.171Z,0.00
2019-03-19T04:06:25.009Z,-0.10
2019-03-19T04:08:56.773Z,-0.10
2019-03-19T04:11:31.472Z,-0.10
2019-03-19T04:14:08.248Z,0.00
2019-03-19T04:16:51.200Z,0.00
2019-03-19T04:19:34.247Z,0.00
2019-03-19T04:22:54.696Z,0.00
2019-03-19T04:25:13.516Z,0.00
2019-03-19T04:27:58.699Z,0.00
2019-03-19T04:30:43.342Z,0.10
2019-03-19T04:33:20.801Z,0.10
2019-03-19T04:35:58.025Z,0.10
2019-03-19T04:38:52.304Z,0.20
2019-03-19T04:41:31.755Z,0.20
2019-03-19T04:49:00.740Z,0.10
2019-03-19T04:50:09.971Z,0.00
2019-03-19T04:52:40.608Z,0.00
2019-03-19T04:55:18.594Z,-0.10
2019-03-19T04:57:53.940Z,-0.10
2019-03-19T05:00:27.477Z,-0.10
2019-03-19T05:03:00.275Z,-0.10
2019-03-19T05:05:38.124Z,-0.10
2019-03-19T05:08:13.619Z,-0.20
2019-03-19T05:10:46.347Z,-0.20
2019-03-19T05:13:17.399Z,-0.30
2019-03-19T05:15:48.983Z,-0.30
2019-03-19T05:18:28.548Z,-0.30
2019-03-19T05:21:01.809Z,-0.30
2019-03-19T05:23:34.161Z,-0.30
2019-03-19T05:26:06.434Z,-0.40
2019-03-19T05:28:41.874Z,-0.40
2019-03-19T05:31:16.369Z,-0.40
2019-03-19T05:33:53.271Z,-0.40
2019-03-19T05:36:31.855Z,-0.40
2019-03-19T05:39:00.068Z,-0.50
2019-03-19T05:41:44.289Z,-0.40
2019-03-19T05:44:15.089Z,-0.40
2019-03-19T05:46:49.546Z,-0.40
2019-03-19T05:49:32.631Z,-0.40
2019-03-19T05:51:57.598Z,-0.30
2019-03-19T05:54:38.125Z,-0.20
2019-03-19T05:57:10.913Z,-0.10
2019-03-19T05:59:42.550Z,0.00
2019-03-19T06:02:13.607Z,0.10
2019-03-19T06:04:46.662Z,0.20
2019-03-19T06:07:19.076Z,0.30
2019-03-19T06:10:19.381Z,0.30
2019-03-19T06:13:14.781Z,0.50
2019-03-19T06:15:49.754Z,0.70
2019-03-19T06:18:22.434Z,0.80
2019-03-19T06:20:58.005Z,0.90
2019-03-19T06:23:34.440Z,1.00
2019-03-19T06:26:10.389Z,1.00
2019-03-19T06:28:41.342Z,1.00
2019-03-19T06:31:38.500Z,1.00
2019-03-19T06:34:13.624Z,1.20
2019-03-19T06:36:46.443Z,1.30
2019-03-19T06:39:20.618Z,1.50
2019-03-19T06:42:10.755Z,1.60
2019-03-19T06:49:08.584Z,1.90
2019-03-19T06:52:02.632Z,2.10
2019-03-19T06:54:42.992Z,2.20
2019-03-19T06:57:38.707Z,2.40
2019-03-19T07:04:13.623Z,2.50
2019-03-19T07:06:48.198Z,2.60
2019-03-19T07:13:04.633Z,2.60
2019-03-19T07:15:35.071Z,2.80
2019-03-19T07:18:05.595Z,2.80
2019-03-19T07:21:01.137Z,2.90
2019-03-19T07:23:31.752Z,3.00
2019-03-19T07:26:05.540Z,3.00
2019-03-19T07:28:37.144Z,3.20
2019-03-19T07:31:09.987Z,3.40
2019-03-19T07:33:44.125Z,3.50
2019-03-19T07:36:15.428Z,3.70
2019-03-19T07:38:46.333Z,3.90
2019-03-19T07:41:17.780Z,4.00
2019-03-19T07:43:48.759Z,4.10
2019-03-19T07:46:19.798Z,4.40
2019-03-19T07:48:52.816Z,4.60
2019-03-19T07:51:23.392Z,4.80
2019-03-19T07:53:54.444Z,5.00
2019-03-19T07:56:25.690Z,5.50
2019-03-19T07:58:56.576Z,5.90
2019-03-19T08:01:27.368Z,6.00
2019-03-19T08:03:58.315Z,6.00
2019-03-19T08:06:29.204Z,5.70
2019-03-19T08:09:00.155Z,5.70
2019-03-19T08:11:37.574Z,6.00
2019-03-19T08:14:08.978Z,6.10
2019-03-19T08:16:39.937Z,6.20
2019-03-19T08:19:10.751Z,6.40
2019-03-19T08:21:41.610Z,7.30
2019-03-19T08:24:12.447Z,8.40
2019-03-19T08:26:43.476Z,9.40
2019-03-19T08:29:16.212Z,10.30
2019-03-19T08:31:47.285Z,10.90
2019-03-19T08:34:18.836Z,10.70
2019-03-19T08:36:52.973Z,10.50
2019-03-19T08:39:28.688Z,10.90
2019-03-19T08:42:02.378Z,11.20
2019-03-19T08:44:33.496Z,11.70
2019-03-19T08:47:05.838Z,11.60
2019-03-19T08:49:37.454Z,11.10
2019-03-19T08:52:19.760Z,10.50
2019-03-19T08:54:57.066Z,9.70
2019-03-19T08:57:41.334Z,9.30
2019-03-19T09:00:30.209Z,9.90
2019-03-19T09:03:11.235Z,11.20
2019-03-19T09:05:47.882Z,12.20
2019-03-19T09:08:52.144Z,12.80
2019-03-19T09:11:13.779Z,13.50
2019-03-19T09:13:44.315Z,14.40
2019-03-19T09:16:14.900Z,15.00
2019-03-19T09:18:45.377Z,15.00
2019-03-19T09:21:15.877Z,15.40
2019-03-19T09:23:46.328Z,15.70
2019-03-19T09:26:17.141Z,16.40
2019-03-19T09:28:47.606Z,17.00
2019-03-19T09:31:18.063Z,17.90
2019-03-19T09:33:48.482Z,18.20
2019-03-19T09:36:18.966Z,18.20
2019-03-19T09:38:49.358Z,17.40
2019-03-19T09:41:19.713Z,16.10
2019-03-19T09:43:50.127Z,14.90
2019-03-19T09:46:20.802Z,13.20
2019-03-19T09:48:51.305Z,11.90
2019-03-19T09:51:21.804Z,11.10
2019-03-19T09:53:52.293Z,10.50
2019-03-19T09:56:22.665Z,9.90
2019-03-19T09:58:57.474Z,9.40
2019-03-19T10:01:27.965Z,8.70
2019-03-19T10:03:58.415Z,9.20
2019-03-19T10:06:28.856Z,10.70
2019-03-19T10:08:59.238Z,12.30
2019-03-19T10:11:29.723Z,12.90
2019-03-19T10:14:02.203Z,13.90
2019-03-19T10:16:32.697Z,15.30
2019-03-19T10:19:03.129Z,16.20
2019-03-19T10:21:33.585Z,16.20
2019-03-19T10:24:04.013Z,15.30
2019-03-19T10:26:34.490Z,14.20
2019-03-19T10:29:04.931Z,13.50
2019-03-19T10:31:35.366Z,12.70
2019-03-19T10:34:05.860Z,12.30
2019-03-19T10:36:36.331Z,11.70
2019-03-19T10:39:09.338Z,12.40
2019-03-19T10:41:39.760Z,13.90
2019-03-19T10:44:10.154Z,14.80
2019-03-19T10:46:40.624Z,14.90
2019-03-19T10:49:11.046Z,14.30
2019-03-19T10:51:41.504Z,13.50
2019-03-19T10:54:12.171Z,13.20
2019-03-19T10:56:42.522Z,13.10
2019-03-19T10:59:12.881Z,12.70
2019-03-19T11:01:43.297Z,11.40
2019-03-19T11:04:13.689Z,10.60
2019-03-19T11:06:44.108Z,10.30
2019-03-19T11:09:14.641Z,10.00
2019-03-19T11:11:45.192Z,9.60
2019-03-19T11:14:15.686Z,9.50
2019-03-19T11:16:46.188Z,9.30
2019-03-19T11:19:16.533Z,9.30
2019-03-19T11:21:46.845Z,9.30
2019-03-19T11:24:17.187Z,9.60
2019-03-19T11:26:47.510Z,9.90
2019-03-19T11:29:18.070Z,10.60
2019-03-19T11:31:48.505Z,11.60
2019-03-19T11:34:18.910Z,12.40
2019-03-19T11:36:57.440Z,13.20
2019-03-19T11:39:21.609Z,13.30
2019-03-19T11:41:52.002Z,13.20
2019-03-19T11:44:22.579Z,13.10
2019-03-19T11:46:53.677Z,12.70
2019-03-19T11:49:24.223Z,12.30
2019-03-19T11:51:56.338Z,12.50
2019-03-19T11:54:26.828Z,13.50
2019-03-19T11:56:57.348Z,13.70
2019-03-19T11:59:27.800Z,13.40
2019-03-19T12:01:58.256Z,12.90
2019-03-19T12:04:28.825Z,12.10
2019-03-19T12:06:59.196Z,11.60
2019-03-19T12:09:29.536Z,11.30
2019-03-19T12:11:59.889Z,11.00
2019-03-19T12:14:30.386Z,10.90
2019-03-19T12:17:00.876Z,10.40
2019-03-19T12:19:31.406Z,10.30
2019-03-19T12:22:01.933Z,10.00
2019-03-19T12:24:32.873Z,10.00
2019-03-19T12:27:03.440Z,10.00
2019-03-19T12:29:33.933Z,10.00
2019-03-19T12:32:04.562Z,9.90
2019-03-19T12:34:35.073Z,10.30
2019-03-19T12:37:05.474Z,12.10
2019-03-19T12:39:35.946Z,14.80
2019-03-19T12:42:06.377Z,17.70
2019-03-19T12:44:36.855Z,17.30
2019-03-19T12:47:07.235Z,15.90
2019-03-19T12:49:37.633Z,15.10
2019-03-19T12:52:08.216Z,14.40
2019-03-19T12:54:38.634Z,13.40
2019-03-19T12:57:09.104Z,12.60
2019-03-19T12:59:39.483Z,11.80
2019-03-19T13:02:10.259Z,11.10
2019-03-19T13:04:40.799Z,10.70
2019-03-19T13:07:11.305Z,10.30
2019-03-19T13:09:41.838Z,10.00
2019-03-19T13:12:12.205Z,9.90
2019-03-19T13:14:42.764Z,9.70
2019-03-19T13:17:13.253Z,9.50
2019-03-19T13:19:43.826Z,9.40
2019-03-19T13:22:14.290Z,9.40
2019-03-19T13:24:44.719Z,9.20
2019-03-19T13:27:15.097Z,9.20
2019-03-19T13:29:45.422Z,9.30
2019-03-19T13:32:15.820Z,9.30
2019-03-19T13:34:46.245Z,9.40
2019-03-19T13:37:16.760Z,9.50
2019-03-19T13:39:47.282Z,9.90
2019-03-19T13:42:17.873Z,10.20
2019-03-19T13:44:48.332Z,10.70
2019-03-19T13:47:18.724Z,11.30
2019-03-19T13:49:49.107Z,11.50
2019-03-19T13:52:19.603Z,11.80
2019-03-19T13:54:50.067Z,11.60
2019-03-19T13:57:20.555Z,11.80
2019-03-19T13:59:50.939Z,11.60
2019-03-19T14:02:21.372Z,11.10
2019-03-19T14:04:51.813Z,11.00
2019-03-19T14:07:22.237Z,10.80
2019-03-19T14:09:52.762Z,10.50
2019-03-19T14:12:23.100Z,10.30
2019-03-19T14:14:53.971Z,10.20
2019-03-19T14:17:24.477Z,10.10
2019-03-19T14:19:55.040Z,10.00
2019-03-19T14:22:25.475Z,9.90
2019-03-19T14:24:55.867Z,9.80
2019-03-19T14:27:26.369Z,9.90
2019-03-19T14:29:56.808Z,9.70
2019-03-19T14:32:27.153Z,9.70
2019-03-19T14:34:57.620Z,9.70
2019-03-19T14:37:28.076Z,9.60
2019-03-19T14:39:58.625Z,9.90
2019-03-19T14:42:29.023Z,10.20
2019-03-19T14:44:59.438Z,11.20
2019-03-19T14:47:29.747Z,13.20
2019-03-19T14:50:00.323Z,14.70
2019-03-19T14:52:30.803Z,14.80
2019-03-19T14:55:01.222Z,14.40
2019-03-19T14:57:31.703Z,13.50
2019-03-19T15:00:02.134Z,12.90
2019-03-19T15:02:32.564Z,12.80
2019-03-19T15:05:03.034Z,13.30
2019-03-19T15:07:33.404Z,13.60
2019-03-19T15:10:03.888Z,13.40
2019-03-19T15:12:34.267Z,13.20
2019-03-19T15:15:05.129Z,12.90
2019-03-19T15:17:35.772Z,12.30
2019-03-19T15:20:08.258Z,11.90
2019-03-19T15:22:38.757Z,10.90
2019-03-19T15:25:09.339Z,10.30
2019-03-19T15:27:39.865Z,9.90
2019-03-19T15:30:10.368Z,9.50
2019-03-19T15:32:40.835Z,9.30
2019-03-19T15:35:11.687Z,9.00
2019-03-19T15:37:42.094Z,8.70
2019-03-19T15:40:13.605Z,8.70
2019-03-19T15:42:44.123Z,8.60
2019-03-19T15:45:14.643Z,8.50
2019-03-19T15:47:45.058Z,8.40
2019-03-19T15:50:16.135Z,8.30
2019-03-19T15:52:46.448Z,8.30
2019-03-19T15:55:16.880Z,8.20
2019-03-19T15:57:47.276Z,8.00
2019-03-19T16:00:17.765Z,8.00
2019-03-19T16:02:48.196Z,8.00
2019-03-19T16:05:18.652Z,7.90
2019-03-19T16:07:49.058Z,7.90
2019-03-19T16:10:19.443Z,7.80
2019-03-19T16:12:49.875Z,7.70
2019-03-19T16:15:21.114Z,7.70
2019-03-19T16:17:51.593Z,7.70
2019-03-19T16:20:21.997Z,7.60
2019-03-19T16:22:52.451Z,7.60
2019-03-19T16:25:22.813Z,7.50
2019-03-19T16:27:53.187Z,7.40
2019-03-19T16:30:23.535Z,7.40
2019-03-19T16:32:53.955Z,7.30
2019-03-19T16:35:24.371Z,7.10
2019-03-19T16:37:54.679Z,7.10
2019-03-19T16:40:25.131Z,7.00
2019-03-19T16:42:55.515Z,6.90
2019-03-19T16:45:25.965Z,7.00
2019-03-19T16:47:56.344Z,6.90
2019-03-19T16:50:26.773Z,7.00
2019-03-19T16:52:57.091Z,6.80
2019-03-19T16:55:27.533Z,6.80
2019-03-19T16:57:57.909Z,6.70
2019-03-19T17:00:28.322Z,6.60
2019-03-19T17:02:58.737Z,6.50
2019-03-19T17:05:29.121Z,6.50
2019-03-19T17:07:59.565Z,6.50
2019-03-19T17:10:30.041Z,6.40
2019-03-19T17:13:00.527Z,6.40
2019-03-19T17:15:30.971Z,6.30
2019-03-19T17:18:01.311Z,6.10
2019-03-19T17:20:31.705Z,6.10
2019-03-19T17:23:02.045Z,5.90
2019-03-19T17:25:32.426Z,5.80
2019-03-19T17:28:02.861Z,5.50
2019-03-19T17:30:33.384Z,5.30
2019-03-19T17:33:03.919Z,5.10
2019-03-19T17:35:34.571Z,4.90
2019-03-19T17:38:04.958Z,4.70
2019-03-19T17:40:41.370Z,4.70
2019-03-19T17:43:07.710Z,4.60
2019-03-19T17:45:38.144Z,4.50
2019-03-19T17:48:15.988Z,4.40
2019-03-19T17:50:40.797Z,4.40
2019-03-19T17:53:11.429Z,4.30
2019-03-19T17:55:41.895Z,4.30
2019-03-19T17:58:12.430Z,4.20
2019-03-19T18:00:44.265Z,4.00
2019-03-19T18:03:14.668Z,3.90
2019-03-19T18:05:45.102Z,3.90
2019-03-19T18:08:15.565Z,3.90
2019-03-19T18:10:46.022Z,3.80
2019-03-19T18:13:16.483Z,3.70
2019-03-19T18:15:46.922Z,3.60
2019-03-19T18:18:17.363Z,3.50
2019-03-19T18:20:47.815Z,3.40
2019-03-19T18:23:18.230Z,3.30
2019-03-19T18:25:48.693Z,3.30
2019-03-19T18:28:19.175Z,3.50
2019-03-19T18:30:49.711Z,3.50
2019-03-19T18:33:20.154Z,3.60
2019-03-19T18:35:50.637Z,3.70
2019-03-19T18:38:21.029Z,3.50
2019-03-19T18:40:51.381Z,3.50
2019-03-19T18:43:21.945Z,3.40
2019-03-19T18:45:52.357Z,3.40
2019-03-19T18:48:22.795Z,3.40
2019-03-19T18:50:53.213Z,3.30
2019-03-19T18:53:23.771Z,3.30
2019-03-19T18:55:54.221Z,3.20
2019-03-19T18:58:24.650Z,3.10
2019-03-19T19:00:54.955Z,3.00
2019-03-19T19:03:25.371Z,2.90
2019-03-19T19:05:55.765Z,2.90
2019-03-19T19:08:26.149Z,2.90
2019-03-19T19:10:56.655Z,2.60
2019-03-19T19:13:27.086Z,2.50
2019-03-19T19:15:57.493Z,2.50
2019-03-19T19:18:27.872Z,2.40
2019-03-19T19:20:58.239Z,2.40
2019-03-19T19:23:28.831Z,2.50
2019-03-19T19:26:00.402Z,2.50
2019-03-19T19:28:30.874Z,2.50
2019-03-19T19:31:02.239Z,2.50
2019-03-19T19:33:32.704Z,2.50
2019-03-19T19:36:03.174Z,2.50
2019-03-19T19:38:33.630Z,2.40
2019-03-19T19:41:04.337Z,2.40
2019-03-19T19:43:34.695Z,2.30
2019-03-19T19:46:05.990Z,2.30
2019-03-19T19:48:36.415Z,2.30
2019-03-19T19:51:06.885Z,2.10
2019-03-19T19:53:37.193Z,2.20
2019-03-19T19:56:09.256Z,2.20
2019-03-19T19:58:42.043Z,2.20
2019-03-19T20:01:12.862Z,2.20
2019-03-19T20:03:43.154Z,2.20
2019-03-19T20:06:13.503Z,2.20
2019-03-19T20:08:44.195Z,2.10
2019-03-19T20:11:14.711Z,1.90
2019-03-19T20:13:45.099Z,1.90
2019-03-19T20:16:15.572Z,1.80
2019-03-19T20:18:45.996Z,1.80
2019-03-19T20:21:17.420Z,1.60
2019-03-19T20:23:47.734Z,1.40
2019-03-19T20:26:18.209Z,1.30
2019-03-19T20:28:48.646Z,1.10
2019-03-19T20:31:19.086Z,1.10
2019-03-19T20:33:49.475Z,0.90
2019-03-19T20:36:19.854Z,0.70
2019-03-19T20:38:50.199Z,0.70
2019-03-19T20:41:20.526Z,0.60
2019-03-19T20:43:51.104Z,0.70
2019-03-19T20:46:21.448Z,0.90
2019-03-19T20:48:51.959Z,1.00
2019-03-19T20:51:22.423Z,1.10
2019-03-19T20:53:52.930Z,1.20
2019-03-19T20:56:23.429Z,1.30
2019-03-19T20:58:53.775Z,1.30
2019-03-19T21:01:24.202Z,1.40
2019-03-19T21:03:54.549Z,1.40
2019-03-19T21:06:25.049Z,1.40
2019-03-19T21:08:55.529Z,1.40
2019-03-19T21:11:25.913Z,1.40
2019-03-19T21:13:57.205Z,1.50
2019-03-19T21:16:29.385Z,1.60
2019-03-19T21:18:59.646Z,1.70
2019-03-19T21:21:30.029Z,1.70
2019-03-19T21:24:00.334Z,1.70
2019-03-19T21:26:30.735Z,1.70
2019-03-19T21:29:01.193Z,1.60
2019-03-19T21:31:31.646Z,1.60
2019-03-19T21:34:02.273Z,1.60
2019-03-19T21:36:32.691Z,1.60
2019-03-19T21:39:03.142Z,1.60
2019-03-19T21:41:33.492Z,1.60
2019-03-19T21:44:03.953Z,1.60
2019-03-19T21:46:34.402Z,1.60
2019-03-19T21:49:04.824Z,1.60
2019-03-19T21:51:35.296Z,1.50
2019-03-19T21:54:05.724Z,1.50
2019-03-19T21:56:36.155Z,1.40
2019-03-19T21:59:06.608Z,1.40
2019-03-19T22:01:37.020Z,1.30
2019-03-19T22:04:07.357Z,1.20
2019-03-19T22:06:37.775Z,1.20
2019-03-19T22:09:08.704Z,1.30
2019-03-19T22:11:39.068Z,1.30
2019-03-19T22:14:09.535Z,1.20
2019-03-19T22:16:39.999Z,1.40
2019-03-19T22:19:10.336Z,1.50
2019-03-19T22:21:40.808Z,1.50
2019-03-19T22:24:11.175Z,1.60
2019-03-19T22:26:41.644Z,1.60
2019-03-19T22:29:12.806Z,1.70
2019-03-19T22:31:43.202Z,1.70
2019-03-19T22:34:14.467Z,1.70
2019-03-19T22:36:45.296Z,1.60
2019-03-19T22:39:15.717Z,1.60
2019-03-19T22:41:46.175Z,1.60
2019-03-19T22:44:16.599Z,1.50
2019-03-19T22:46:46.891Z,1.50
2019-03-19T22:49:17.317Z,1.50
2019-03-19T22:51:47.716Z,1.50
2019-03-19T22:54:18.124Z,1.40
2019-03-19T22:56:48.504Z,1.40
2019-03-19T22:59:18.952Z,1.30
2019-03-19T23:01:49.400Z,1.30
2019-03-19T23:04:27.111Z,1.30
2019-03-19T23:06:52.103Z,1.20
2019-03-19T23:09:22.524Z,1.20
2019-03-19T23:11:53.005Z,1.20
2019-03-19T23:14:23.851Z,1.10
2019-03-19T23:16:54.336Z,1.10
2019-03-19T23:19:24.874Z,1.10
2019-03-19T23:21:55.264Z,1.00
2019-03-19T23:24:25.734Z,1.00
2019-03-19T23:26:56.261Z,1.00
2019-03-19T23:29:26.710Z,0.90
2019-03-19T23:31:57.086Z,0.90
2019-03-19T23:34:37.898Z,0.90
2019-03-19T23:36:59.588Z,0.90
2019-03-19T23:39:30.013Z,1.00
2019-03-19T23:42:00.451Z,0.90
2019-03-19T23:44:30.907Z,1.00
2019-03-19T23:47:01.261Z,1.00
2019-03-19T23:49:31.548Z,1.00
2019-03-19T23:52:01.946Z,0.90
2019-03-19T23:54:32.389Z,0.90
2019-03-19T23:57:02.730Z,0.90
2019-03-19T23:59:33.102Z,0.90
